createdAt,value
2022-10-17T00:00:10.246Z,99191.06
2022-10-17T00:02:57.736Z,99190.91
2022-10-17T00:05:46.384Z,99196.00
2022-10-17T00:08:33.128Z,99187.53
2022-10-17T00:11:22.724Z,99203.63
2022-10-17T00:14:09.544Z,99193.34
2022-10-17T00:16:56.305Z,99195.56
2022-10-17T00:19:43.112Z,99199.56
2022-10-17T00:22:29.984Z,99197.72
2022-10-17T00:25:17.526Z,99191.94
2022-10-17T00:28:04.374Z,99190.16
2022-10-17T00:31:02.932Z,99191.41
2022-10-17T00:33:50.060Z,99192.84
2022-10-17T00:36:37.577Z,99180.84
2022-10-17T00:39:24.455Z,99191.97
2022-10-17T00:42:13.177Z,99188.47
2022-10-17T00:45:06.458Z,99186.19
2022-10-17T00:48:00.080Z,99188.56
2022-10-17T00:50:50.135Z,99191.53
2022-10-17T00:53:39.328Z,99192.53
2022-10-17T00:56:26.275Z,99192.25
2022-10-17T00:59:21.176Z,99200.03
2022-10-17T01:02:15.629Z,99199.03
2022-10-17T01:05:02.509Z,99201.84
2022-10-17T01:07:53.168Z,99209.19
2022-10-17T01:11:19.982Z,99206.66
2022-10-17T01:14:31.495Z,99200.75
2022-10-17T01:17:39.640Z,99217.94
2022-10-17T01:20:50.763Z,99219.78
2022-10-17T01:24:03.487Z,99217.25
2022-10-17T01:27:11.798Z,99215.97
2022-10-17T01:30:07.792Z,99216.81
2022-10-17T01:33:02.567Z,99212.56
2022-10-17T01:36:03.173Z,99214.97
2022-10-17T01:39:04.995Z,99212.16
2022-10-17T01:41:54.816Z,99215.72
2022-10-17T01:45:08.239Z,99214.72
2022-10-17T01:48:00.392Z,99204.03
2022-10-17T01:50:55.891Z,99214.31
2022-10-17T01:53:53.291Z,99208.38
2022-10-17T01:56:42.715Z,99213.88
2022-10-17T01:59:44.978Z,99220.47
2022-10-17T02:02:32.807Z,99215.97
2022-10-17T02:05:24.789Z,99216.56
2022-10-17T02:08:12.464Z,99214.00
2022-10-17T02:11:10.952Z,99204.69
2022-10-17T02:17:21.717Z,99208.06
2022-10-17T02:20:28.952Z,99209.63
2022-10-17T02:23:28.004Z,99212.59
2022-10-17T02:26:33.848Z,99198.66
2022-10-17T02:29:28.684Z,99201.47
2022-10-17T02:32:28.110Z,99198.78
2022-10-17T02:34:58.138Z,99200.59
2022-10-17T02:37:30.024Z,99195.41
2022-10-17T02:39:59.794Z,99202.97
2022-10-17T02:42:28.821Z,99200.56
2022-10-17T02:45:00.994Z,99204.94
2022-10-17T02:47:33.311Z,99207.75
2022-10-17T02:50:02.339Z,99205.28
2022-10-17T02:52:46.401Z,99211.78
2022-10-17T02:55:20.943Z,99210.53
2022-10-17T02:57:53.981Z,99213.41
2022-10-17T03:00:22.519Z,99216.75
2022-10-17T03:02:52.479Z,99222.69
2022-10-17T03:05:29.729Z,99221.25
2022-10-17T03:07:56.871Z,99223.34
2022-10-17T03:10:24.638Z,99223.59
2022-10-17T03:12:54.047Z,99226.25
2022-10-17T03:15:22.900Z,99234.81
2022-10-17T03:17:49.398Z,99230.63
2022-10-17T03:20:16.949Z,99238.94
2022-10-17T03:22:44.826Z,99242.97
2022-10-17T03:25:11.317Z,99251.66
2022-10-17T03:27:37.858Z,99250.84
2022-10-17T03:30:05.327Z,99247.78
2022-10-17T03:32:35.784Z,99253.84
2022-10-17T03:35:10.176Z,99250.16
2022-10-17T03:37:40.570Z,99246.66
2022-10-17T03:40:07.487Z,99252.13
2022-10-17T03:42:40.404Z,99253.97
2022-10-17T03:45:07.546Z,99255.91
2022-10-17T03:47:35.150Z,99254.22
2022-10-17T03:50:01.813Z,99264.75
2022-10-17T03:52:31.713Z,99264.13
2022-10-17T03:55:01.375Z,99267.53
2022-10-17T03:57:28.103Z,99258.06
2022-10-17T03:59:55.152Z,99271.59
2022-10-17T04:02:21.891Z,99272.91
2022-10-17T04:04:49.489Z,99275.91
2022-10-17T04:07:16.042Z,99278.06
2022-10-17T04:09:45.034Z,99274.53
2022-10-17T04:12:16.429Z,99283.09
2022-10-17T04:14:43.586Z,99281.41
2022-10-17T04:17:10.337Z,99280.44
2022-10-17T04:19:37.142Z,99282.06
2022-10-17T04:22:04.007Z,99286.44
2022-10-17T04:24:36.024Z,99286.16
2022-10-17T04:27:08.874Z,99291.84
2022-10-17T04:29:40.822Z,99282.91
2022-10-17T04:32:15.718Z,99288.59
2022-10-17T04:34:51.068Z,99285.78
2022-10-17T04:37:19.499Z,99290.16
2022-10-17T04:39:47.528Z,99288.34
2022-10-17T04:42:14.003Z,99290.47
2022-10-17T04:44:40.795Z,99288.59
2022-10-17T04:47:08.153Z,99285.97
2022-10-17T04:49:34.630Z,99285.56
2022-10-17T04:52:10.621Z,99292.88
2022-10-17T04:54:39.869Z,99293.88
2022-10-17T04:57:13.136Z,99297.03
2022-10-17T04:59:41.249Z,99293.16
2022-10-17T05:02:22.215Z,99297.03
2022-10-17T05:04:48.740Z,99292.94
2022-10-17T05:07:15.924Z,99296.00
2022-10-17T05:09:45.069Z,99295.47
2022-10-17T05:12:11.839Z,99298.81
2022-10-17T05:14:42.239Z,99292.25
2022-10-17T05:17:08.743Z,99299.00
2022-10-17T05:19:35.558Z,99299.13
2022-10-17T05:22:04.387Z,99307.00
2022-10-17T05:24:30.890Z,99305.31
2022-10-17T05:26:57.926Z,99306.75
2022-10-17T05:29:24.546Z,99313.06
2022-10-17T05:31:57.666Z,99315.31
2022-10-17T05:34:26.568Z,99307.75
2022-10-17T05:36:53.007Z,99304.56
2022-10-17T05:39:23.222Z,99309.59
2022-10-17T05:41:52.657Z,99309.53
2022-10-17T05:44:19.215Z,99305.28
2022-10-17T05:46:51.616Z,99306.63
2022-10-17T05:49:32.171Z,99313.94
2022-10-17T05:52:02.045Z,99310.13
2022-10-17T05:54:33.838Z,99311.31
2022-10-17T05:57:00.807Z,99310.78
2022-10-17T05:59:30.753Z,99318.09
2022-10-17T06:02:02.759Z,99324.19
2022-10-17T06:04:29.991Z,99324.59
2022-10-17T06:06:56.511Z,99331.13
2022-10-17T06:09:23.934Z,99331.72
2022-10-17T06:11:53.122Z,99339.41
2022-10-17T06:14:20.104Z,99338.50
2022-10-17T06:16:49.907Z,99349.50
2022-10-17T06:19:16.403Z,99346.91
2022-10-17T06:21:45.989Z,99354.34
2022-10-17T06:24:14.887Z,99343.84
2022-10-17T06:26:44.823Z,99347.56
2022-10-17T06:29:13.956Z,99346.44
2022-10-17T06:31:45.618Z,99345.22
2022-10-17T06:34:12.117Z,99348.69
2022-10-17T06:36:42.582Z,99345.34
2022-10-17T06:39:10.090Z,99350.63
2022-10-17T06:41:41.636Z,99355.50
2022-10-17T06:44:11.135Z,99345.84
2022-10-17T06:47:01.076Z,99359.56
2022-10-17T06:49:28.284Z,99364.88
2022-10-17T06:52:17.429Z,99355.88
2022-10-17T06:54:57.920Z,99365.19
2022-10-17T06:57:33.271Z,99376.03
2022-10-17T07:00:11.186Z,99360.97
2022-10-17T07:02:44.091Z,99371.31
2022-10-17T07:05:10.728Z,99384.50
2022-10-17T07:07:40.144Z,99381.50
2022-10-17T07:10:12.051Z,99385.81
2022-10-17T07:12:40.007Z,99388.72
2022-10-17T07:15:07.068Z,99395.50
2022-10-17T07:17:34.074Z,99393.19
2022-10-17T07:20:00.546Z,99395.50
2022-10-17T07:22:31.890Z,99389.63
2022-10-17T07:24:58.850Z,99391.03
2022-10-17T07:27:43.805Z,99387.81
2022-10-17T07:30:13.339Z,99389.94
2022-10-17T07:32:55.284Z,99396.44
2022-10-17T07:35:22.120Z,99400.97
2022-10-17T07:37:48.663Z,99408.34
2022-10-17T07:40:18.279Z,99400.59
2022-10-17T07:42:52.626Z,99402.59
2022-10-17T07:45:20.343Z,99393.13
2022-10-17T07:47:49.482Z,99401.59
2022-10-17T07:50:18.407Z,99410.59
2022-10-17T07:52:49.183Z,99406.97
2022-10-17T07:55:17.766Z,99409.72
2022-10-17T07:57:44.255Z,99415.75
2022-10-17T08:00:11.571Z,99420.44
2022-10-17T08:02:41.274Z,99416.19
2022-10-17T08:05:08.145Z,99403.88
2022-10-17T08:07:36.996Z,99403.69
2022-10-17T08:10:03.837Z,99420.91
2022-10-17T08:12:32.812Z,99427.75
2022-10-17T08:15:00.646Z,99436.19
2022-10-17T08:17:27.475Z,99446.88
2022-10-17T08:19:56.090Z,99444.53
2022-10-17T08:22:22.748Z,99489.19
2022-10-17T08:24:49.202Z,99507.88
2022-10-17T08:27:23.894Z,99529.78
2022-10-17T08:29:54.281Z,99624.03
2022-10-17T08:32:22.786Z,99702.50
2022-10-17T08:34:51.631Z,99744.69
2022-10-17T08:37:18.297Z,99874.84
2022-10-17T08:39:45.200Z,99894.78
2022-10-17T08:42:22.552Z,99987.53
2022-10-17T08:45:24.213Z,99939.47
2022-10-17T08:48:09.177Z,99661.63
2022-10-17T08:50:53.934Z,99892.72
2022-10-17T08:53:34.866Z,99208.47
2022-10-17T08:56:19.461Z,98809.91
2022-10-17T08:58:53.472Z,99325.41
2022-10-17T09:01:34.485Z,98578.47
2022-10-17T09:07:16.666Z,98339.16
2022-10-17T09:10:01.158Z,98473.50
2022-10-17T09:13:07.782Z,98484.75
2022-10-17T09:15:54.969Z,98719.78
2022-10-17T09:18:31.793Z,98507.69
2022-10-17T09:21:19.394Z,98673.94
2022-10-17T09:23:56.058Z,98541.72
2022-10-17T09:26:30.694Z,98339.69
2022-10-17T09:29:00.195Z,98538.97
2022-10-17T09:31:34.028Z,98471.88
2022-10-17T09:34:05.191Z,98598.22
2022-10-17T09:36:40.609Z,98993.34
2022-10-17T09:39:22.348Z,98899.97
2022-10-17T09:41:53.048Z,98995.56
2022-10-17T09:44:19.508Z,98881.78
2022-10-17T09:46:51.791Z,98925.66
2022-10-17T09:49:29.185Z,98896.88
2022-10-17T09:51:55.718Z,99182.38
2022-10-17T09:54:25.795Z,98979.47
2022-10-17T09:57:01.397Z,98939.44
2022-10-17T09:59:41.863Z,98903.84
2022-10-17T10:02:21.260Z,99065.84
2022-10-17T10:05:04.211Z,99035.16
2022-10-17T10:07:34.698Z,99115.13
2022-10-17T10:10:03.174Z,99023.00
2022-10-17T10:12:35.954Z,98417.00
2022-10-17T10:15:22.710Z,98431.06
2022-10-17T10:17:49.159Z,98571.34
2022-10-17T10:20:37.468Z,98393.72
2022-10-17T10:23:06.933Z,98360.59
2022-10-17T10:25:35.343Z,98333.34
2022-10-17T10:28:02.711Z,98326.16
2022-10-17T10:30:34.824Z,98363.84
2022-10-17T10:33:04.120Z,98433.44
2022-10-17T10:35:37.258Z,98740.22
2022-10-17T10:38:11.096Z,98614.69
2022-10-17T10:40:54.318Z,98666.50
2022-10-17T10:43:45.183Z,99614.88
2022-10-17T10:46:27.285Z,99900.84
2022-10-17T10:48:58.499Z,99861.22
2022-10-17T10:51:40.942Z,99828.84
2022-10-17T10:54:20.833Z,99821.06
2022-10-17T10:56:53.379Z,99837.09
2022-10-17T10:59:53.063Z,99830.41
2022-10-17T11:02:43.616Z,99813.84
2022-10-17T11:05:24.629Z,99800.13
2022-10-17T11:08:00.923Z,99821.16
2022-10-17T11:11:08.335Z,99822.78
2022-10-17T11:13:42.469Z,99824.16
2022-10-17T11:16:11.965Z,99807.56
2022-10-17T11:18:53.321Z,99795.47
2022-10-17T11:21:39.021Z,99817.84
2022-10-17T11:24:23.977Z,99795.78
2022-10-17T11:27:09.546Z,99750.13
2022-10-17T11:29:39.375Z,99739.59
2022-10-17T11:32:08.448Z,99750.75
2022-10-17T11:34:42.431Z,99748.47
2022-10-17T11:37:22.441Z,99736.63
2022-10-17T11:39:54.130Z,99733.81
2022-10-17T11:42:55.164Z,99731.31
2022-10-17T11:45:24.981Z,99725.19
2022-10-17T11:48:04.089Z,99718.16
2022-10-17T11:53:23.874Z,99717.44
2022-10-17T11:55:54.662Z,99702.78
2022-10-17T11:58:27.112Z,99699.41
2022-10-17T12:00:58.980Z,99707.97
2022-10-17T12:04:02.678Z,99684.72
2022-10-17T12:07:00.982Z,99697.09
2022-10-17T12:09:53.259Z,99708.66
2022-10-17T12:12:34.463Z,99698.00
2022-10-17T12:15:24.392Z,99670.41
2022-10-17T12:17:57.091Z,99682.56
2022-10-17T12:20:28.720Z,99683.03
2022-10-17T12:23:10.400Z,99649.13
2022-10-17T12:25:49.967Z,99675.16
2022-10-17T12:28:24.044Z,99673.28
2022-10-17T12:31:00.900Z,99656.06
2022-10-17T12:33:35.442Z,99653.72
2022-10-17T12:36:21.064Z,99643.34
2022-10-17T12:39:02.803Z,99656.13
2022-10-17T12:41:53.648Z,99622.91
2022-10-17T12:44:25.586Z,99626.56
2022-10-17T12:47:06.048Z,99633.50
2022-10-17T12:50:05.449Z,99620.38
2022-10-17T12:52:31.913Z,99620.03
2022-10-17T12:55:12.695Z,99611.47
2022-10-17T12:57:51.555Z,99620.19
2022-10-17T13:00:31.147Z,99632.81
2022-10-17T13:03:06.140Z,99627.13
2022-10-17T13:05:36.301Z,99610.34
2022-10-17T13:08:07.489Z,99624.59
2022-10-17T13:10:39.720Z,99622.72
2022-10-17T13:13:18.152Z,99623.56
2022-10-17T13:15:50.077Z,99641.25
2022-10-17T13:18:34.960Z,99649.69
2022-10-17T13:21:05.633Z,99661.13
2022-10-17T13:23:37.173Z,99660.66
2022-10-17T13:26:21.921Z,99672.06
2022-10-17T13:29:13.351Z,99693.50
2022-10-17T13:31:42.393Z,99699.91
2022-10-17T13:34:17.868Z,99691.47
2022-10-17T13:36:48.835Z,99695.16
2022-10-17T13:39:23.129Z,99704.16
2022-10-17T13:42:01.781Z,99721.16
2022-10-17T13:44:34.061Z,99723.53
2022-10-17T13:47:05.352Z,99742.41
2022-10-17T13:49:40.462Z,99743.91
2022-10-17T13:52:23.357Z,99753.56
2022-10-17T13:54:51.597Z,99734.72
2022-10-17T13:57:20.447Z,99747.41
2022-10-17T13:59:51.727Z,99757.88
2022-10-17T14:02:30.793Z,99744.28
2022-10-17T14:05:19.220Z,99757.78
2022-10-17T14:08:15.890Z,99801.44
2022-10-17T14:10:44.388Z,99800.31
2022-10-17T14:13:22.832Z,99813.97
2022-10-17T14:15:50.240Z,99810.41
2022-10-17T14:18:25.779Z,99804.50
2022-10-17T14:23:42.500Z,99798.19
2022-10-17T14:26:15.608Z,99832.13
2022-10-17T14:28:44.557Z,99810.59
2022-10-17T14:31:25.597Z,99837.47
2022-10-17T14:33:55.591Z,99824.31
2022-10-17T14:36:32.244Z,99821.53
2022-10-17T14:39:02.096Z,99815.16
2022-10-17T14:41:47.835Z,99821.94
2022-10-17T14:44:25.679Z,99821.84
2022-10-17T14:47:00.232Z,99825.06
2022-10-17T14:49:37.311Z,99812.19
2022-10-17T14:52:18.359Z,99835.91
2022-10-17T14:54:49.844Z,99834.88
2022-10-17T14:57:19.266Z,99841.25
2022-10-17T14:59:54.555Z,99851.00
2022-10-17T15:02:23.618Z,99836.22
2022-10-17T15:04:50.093Z,99839.66
2022-10-17T15:07:17.799Z,99872.00
2022-10-17T15:09:45.600Z,99869.09
2022-10-17T15:12:15.797Z,99884.34
2022-10-17T15:14:43.287Z,99877.03
2022-10-17T15:17:34.625Z,99880.59
2022-10-17T15:20:03.576Z,99900.50
2022-10-17T15:22:31.461Z,99912.41
2022-10-17T15:24:58.174Z,99896.59
2022-10-17T15:27:24.975Z,99910.66
2022-10-17T15:29:55.982Z,99914.94
2022-10-17T15:32:25.074Z,99896.47
2022-10-17T15:34:51.502Z,99891.75
2022-10-17T15:37:25.534Z,99886.97
2022-10-17T15:39:55.196Z,99894.66
2022-10-17T15:42:29.016Z,99887.03
2022-10-17T15:44:56.666Z,99893.34
2022-10-17T15:47:33.653Z,99876.56
2022-10-17T15:50:04.723Z,99880.13
2022-10-17T15:52:31.376Z,99873.47
2022-10-17T15:54:59.725Z,99861.31
2022-10-17T15:57:33.704Z,99857.25
2022-10-17T16:00:00.419Z,99855.25
2022-10-17T16:02:27.383Z,99818.34
2022-10-17T16:04:56.233Z,99827.69
2022-10-17T16:07:22.700Z,99834.13
2022-10-17T16:09:49.166Z,99826.16
2022-10-17T16:12:24.526Z,99802.03
2022-10-17T16:14:51.002Z,99809.13
2022-10-17T16:17:17.621Z,99804.22
2022-10-17T16:19:46.829Z,99788.00
2022-10-17T16:22:43.371Z,99759.22
2022-10-17T16:25:25.805Z,99755.34
2022-10-17T16:27:57.528Z,99729.28
2022-10-17T16:30:26.569Z,99737.59
2022-10-17T16:32:56.880Z,99734.88
2022-10-17T16:35:33.071Z,99708.38
2022-10-17T16:38:07.556Z,99715.13
2022-10-17T16:40:37.651Z,99710.38
2022-10-17T16:43:10.505Z,99715.97
2022-10-17T16:45:39.254Z,99675.38
2022-10-17T16:48:06.189Z,99694.53
2022-10-17T16:50:35.433Z,99691.66
2022-10-17T16:53:03.283Z,99702.78
2022-10-17T16:55:32.138Z,99698.41
2022-10-17T16:57:59.868Z,99688.03
2022-10-17T17:00:26.344Z,99698.38
2022-10-17T17:02:55.207Z,99690.91
2022-10-17T17:05:40.151Z,99671.47
2022-10-17T17:08:27.228Z,99678.75
2022-10-17T17:11:16.242Z,99668.09
2022-10-17T17:14:04.264Z,99670.63
2022-10-17T17:16:51.047Z,99670.97
2022-10-17T17:19:37.837Z,99663.34
2022-10-17T17:22:26.992Z,99656.94
2022-10-17T17:25:14.100Z,99652.34
2022-10-17T17:28:06.872Z,99645.75
2022-10-17T17:30:54.629Z,99643.22
2022-10-17T17:33:42.640Z,99630.56
2022-10-17T17:36:32.467Z,99624.38
2022-10-17T17:39:19.303Z,99617.81
2022-10-17T17:42:06.140Z,99602.69
2022-10-17T17:44:53.001Z,99619.44
2022-10-17T17:47:39.820Z,99600.91
2022-10-17T17:50:26.584Z,99620.88
2022-10-17T17:53:15.701Z,99605.16
2022-10-17T17:56:05.492Z,99630.81
2022-10-17T17:58:57.690Z,99612.56
2022-10-17T18:01:44.590Z,99626.91
2022-10-17T18:04:31.699Z,99630.41
2022-10-17T18:07:18.468Z,99634.44
2022-10-17T18:10:06.555Z,99628.03
2022-10-17T18:12:53.612Z,99634.44
2022-10-17T18:15:41.966Z,99651.78
2022-10-17T18:18:30.419Z,99660.56
2022-10-17T18:21:17.540Z,99660.72
2022-10-17T18:24:04.834Z,99667.44
2022-10-17T18:26:53.941Z,99674.13
2022-10-17T18:29:40.697Z,99637.69
2022-10-17T18:32:30.435Z,99628.38
2022-10-17T18:35:17.646Z,99626.22
2022-10-17T18:38:04.476Z,99611.16
2022-10-17T18:41:04.479Z,99613.38
2022-10-17T18:43:52.572Z,99628.44
2022-10-17T18:46:43.037Z,99623.13
2022-10-17T18:49:29.896Z,99609.00
2022-10-17T18:52:19.077Z,99579.47
2022-10-17T18:55:06.473Z,99573.78
2022-10-17T18:57:53.661Z,99581.50
2022-10-17T19:00:40.560Z,99571.91
2022-10-17T19:03:27.347Z,99588.25
2022-10-17T19:06:22.447Z,99599.25
2022-10-17T19:09:11.055Z,99591.03
2022-10-17T19:11:57.859Z,99594.72
2022-10-17T19:14:44.646Z,99589.59
2022-10-17T19:17:31.695Z,99587.19
2022-10-17T19:20:18.738Z,99575.19
2022-10-17T19:23:05.582Z,99558.34
2022-10-17T19:25:54.138Z,99565.44
2022-10-17T19:28:43.212Z,99565.94
2022-10-17T19:31:31.687Z,99556.25
2022-10-17T19:34:19.393Z,99531.41
2022-10-17T19:37:06.199Z,99524.06
2022-10-17T19:39:52.963Z,99529.72
2022-10-17T19:42:39.764Z,99538.28
2022-10-17T19:45:26.553Z,99548.41
2022-10-17T19:48:13.370Z,99542.75
2022-10-17T19:51:00.250Z,99540.84
2022-10-17T19:53:47.410Z,99542.94
2022-10-17T19:56:37.877Z,99543.47
2022-10-17T19:59:26.029Z,99543.88
2022-10-17T20:02:13.554Z,99553.63
2022-10-17T20:05:17.522Z,99547.97
2022-10-17T20:08:05.432Z,99554.06
2022-10-17T20:10:52.243Z,99565.94
2022-10-17T20:13:39.904Z,99575.66
2022-10-17T20:16:30.323Z,99570.53
2022-10-17T20:19:17.130Z,99587.19
2022-10-17T20:22:03.914Z,99579.09
2022-10-17T20:24:50.691Z,99584.69
2022-10-17T20:27:37.505Z,99594.00
2022-10-17T20:30:24.292Z,99586.69
2022-10-17T20:33:11.717Z,99591.72
2022-10-17T20:36:04.670Z,99596.25
2022-10-17T20:38:58.841Z,99589.72
2022-10-17T20:41:46.289Z,99588.28
2022-10-17T20:44:33.091Z,99593.53
2022-10-17T20:47:33.160Z,99596.09
2022-10-17T20:50:26.781Z,99583.50
2022-10-17T20:56:23.240Z,99593.72
2022-10-17T20:59:16.290Z,99596.09
2022-10-17T21:02:05.099Z,99599.19
2022-10-17T21:04:54.149Z,99607.69
2022-10-17T21:07:40.971Z,99599.09
2022-10-17T21:10:35.805Z,99606.31
2022-10-17T21:13:25.286Z,99604.91
2022-10-17T21:16:15.384Z,99610.69
2022-10-17T21:19:03.223Z,99611.53
2022-10-17T21:21:50.493Z,99612.69
2022-10-17T21:24:37.281Z,99613.25
2022-10-17T21:27:24.064Z,99618.31
2022-10-17T21:30:12.916Z,99610.28
2022-10-17T21:33:02.197Z,99619.47
2022-10-17T21:35:54.060Z,99616.78
2022-10-17T21:38:41.017Z,99606.06
2022-10-17T21:41:29.223Z,99609.75
2022-10-17T21:44:19.119Z,99600.56
2022-10-17T21:47:05.969Z,99600.00
2022-10-17T21:49:52.866Z,99598.88
2022-10-17T21:52:39.804Z,99594.47
2022-10-17T21:55:26.588Z,99596.19
2022-10-17T21:58:13.399Z,99591.50
2022-10-17T22:01:04.896Z,99585.41
2022-10-17T22:03:54.412Z,99587.50
2022-10-17T22:06:42.793Z,99594.03
2022-10-17T22:09:29.552Z,99598.53
2022-10-17T22:12:16.340Z,99600.94
2022-10-17T22:15:03.736Z,99592.34
2022-10-17T22:17:50.598Z,99600.09
2022-10-17T22:20:39.645Z,99597.53
2022-10-17T22:23:26.449Z,99606.31
2022-10-17T22:26:13.957Z,99594.13
2022-10-17T22:29:05.041Z,99605.03
2022-10-17T22:31:51.859Z,99595.97
2022-10-17T22:34:41.320Z,99609.25
2022-10-17T22:37:28.335Z,99601.34
2022-10-17T22:40:15.306Z,99605.44
2022-10-17T22:43:02.401Z,99599.63
2022-10-17T22:45:57.246Z,99592.16
2022-10-17T22:48:44.088Z,99591.56
2022-10-17T22:51:31.097Z,99574.06
2022-10-17T22:54:17.892Z,99590.19
2022-10-17T22:57:04.656Z,99590.47
2022-10-17T22:59:51.450Z,99594.38
2022-10-17T23:02:38.620Z,99586.19
2022-10-17T23:05:25.411Z,99583.03
2022-10-17T23:08:15.613Z,99577.16
2022-10-17T23:11:02.508Z,99579.84
2022-10-17T23:13:49.556Z,99572.75
2022-10-17T23:16:36.386Z,99571.78
2022-10-17T23:19:23.230Z,99574.88
2022-10-17T23:22:10.298Z,99573.31
2022-10-17T23:24:57.081Z,99562.88
2022-10-17T23:27:46.195Z,99556.50
2022-10-17T23:30:33.056Z,99562.53
2022-10-17T23:33:19.900Z,99561.44
2022-10-17T23:36:09.460Z,99556.59
2022-10-17T23:38:58.542Z,99551.28
2022-10-17T23:41:45.624Z,99557.28
2022-10-17T23:44:32.396Z,99552.81
2022-10-17T23:47:19.279Z,99561.00
2022-10-17T23:50:06.684Z,99570.47
2022-10-17T23:52:53.475Z,99567.81
2022-10-17T23:55:40.278Z,99558.44
2022-10-17T23:58:27.471Z,99544.19
